sensor_id;sensor_type;location;lat;lon;timestamp;pressure;altitude;pressure_sealevel;temperature;humidity
54453;BME280;40363;52.270;10.546;2023-08-12T00:01:47;75593.25;;;-147.06;75.66
54453;BME280;40363;52.270;10.546;2023-08-12T00:04:14;75597.34;;;-147.06;76.06
54453;BME280;40363;52.270;10.546;2023-08-12T00:06:41;75591.19;;;-147.06;76.41
54453;BME280;40363;52.270;10.546;2023-08-12T00:09:08;75605.56;;;-147.06;77.01
54453;BME280;40363;52.270;10.546;2023-08-12T00:11:36;75601.47;;;-147.06;76.90
54453;BME280;40363;52.270;10.546;2023-08-12T00:14:03;75605.56;;;-147.06;76.72
54453;BME280;40363;52.270;10.546;2023-08-12T00:16:30;75593.25;;;-147.06;75.67
54453;BME280;40363;52.270;10.546;2023-08-12T00:18:57;75601.47;;;-147.06;75.74
54453;BME280;40363;52.270;10.546;2023-08-12T00:21:25;75595.31;;;-147.06;76.11
54453;BME280;40363;52.270;10.546;2023-08-12T00:23:51;75605.56;;;-147.06;75.86
54453;BME280;40363;52.270;10.546;2023-08-12T00:26:18;75593.25;;;-147.06;75.71
54453;BME280;40363;52.270;10.546;2023-08-12T00:28:48;75589.13;;;-147.06;75.86
54453;BME280;40363;52.270;10.546;2023-08-12T00:31:15;75582.97;;;-147.06;75.78
54453;BME280;40363;52.270;10.546;2023-08-12T00:33:41;75582.97;;;-147.06;76.13
54453;BME280;40363;52.270;10.546;2023-08-12T00:36:08;75591.19;;;-147.06;76.27
54453;BME280;40363;52.270;10.546;2023-08-12T00:38:35;75589.13;;;-147.06;76.52
54453;BME280;40363;52.270;10.546;2023-08-12T00:41:01;75593.25;;;-147.06;76.75
54453;BME280;40363;52.270;10.546;2023-08-12T00:43:28;75591.19;;;-147.06;76.85
54453;BME280;40363;52.270;10.546;2023-08-12T00:45:56;75587.09;;;-147.06;76.98
54453;BME280;40363;52.270;10.546;2023-08-12T00:48:22;75587.09;;;-147.06;76.73
54453;BME280;40363;52.270;10.546;2023-08-12T00:50:49;75587.09;;;-147.06;76.87
54453;BME280;40363;52.270;10.546;2023-08-12T00:53:16;75593.25;;;-147.06;77.34
54453;BME280;40363;52.270;10.546;2023-08-12T00:55:43;75582.97;;;-147.06;76.21
54453;BME280;40363;52.270;10.546;2023-08-12T00:58:10;75591.19;;;-147.06;76.80
54453;BME280;40363;52.270;10.546;2023-08-12T01:00:37;75585.03;;;-147.06;76.65
54453;BME280;40363;52.270;10.546;2023-08-12T01:03:05;75576.81;;;-147.06;77.02
54453;BME280;40363;52.270;10.546;2023-08-12T01:05:33;75587.09;;;-147.06;76.60
54453;BME280;40363;52.270;10.546;2023-08-12T01:07:59;75591.19;;;-147.06;77.36
54453;BME280;40363;52.270;10.546;2023-08-12T01:10:32;75578.88;;;-147.06;77.08
54453;BME280;40363;52.270;10.546;2023-08-12T01:13:09;75589.13;;;-147.06;77.01
54453;BME280;40363;52.270;10.546;2023-08-12T01:15:40;75582.97;;;-147.06;77.11
54453;BME280;40363;52.270;10.546;2023-08-12T01:18:10;75589.13;;;-147.06;77.57
54453;BME280;40363;52.270;10.546;2023-08-12T01:20:37;75580.91;;;-147.06;77.62
54453;BME280;40363;52.270;10.546;2023-08-12T01:23:10;75580.91;;;-147.06;77.42
54453;BME280;40363;52.270;10.546;2023-08-12T01:25:37;75591.19;;;-147.06;77.51
54453;BME280;40363;52.270;10.546;2023-08-12T01:28:04;75595.31;;;-147.06;77.84
54453;BME280;40363;52.270;10.546;2023-08-12T01:30:32;75593.25;;;-147.06;77.72
54453;BME280;40363;52.270;10.546;2023-08-12T01:33:03;75591.19;;;-147.06;78.08
54453;BME280;40363;52.270;10.546;2023-08-12T01:35:37;75593.25;;;-147.06;77.88
54453;BME280;40363;52.270;10.546;2023-08-12T01:38:08;75589.13;;;-147.06;77.41
54453;BME280;40363;52.270;10.546;2023-08-12T01:40:38;75589.13;;;-147.06;77.89
54453;BME280;40363;52.270;10.546;2023-08-12T01:43:05;75585.03;;;-147.06;77.24
54453;BME280;40363;52.270;10.546;2023-08-12T01:45:33;75578.88;;;-147.06;76.27
54453;BME280;40363;52.270;10.546;2023-08-12T01:48:00;75566.53;;;-147.06;76.02
54453;BME280;40363;52.270;10.546;2023-08-12T01:50:27;75572.69;;;-147.06;76.07
54453;BME280;40363;52.270;10.546;2023-08-12T01:52:53;75570.66;;;-147.06;75.92
54453;BME280;40363;52.270;10.546;2023-08-12T01:55:20;75574.75;;;-147.06;76.01
54453;BME280;40363;52.270;10.546;2023-08-12T01:57:48;75560.38;;;-147.06;75.45
54453;BME280;40363;52.270;10.546;2023-08-12T02:00:15;75564.47;;;-147.06;75.58
54453;BME280;40363;52.270;10.546;2023-08-12T02:02:42;75558.31;;;-147.06;75.31
54453;BME280;40363;52.270;10.546;2023-08-12T02:05:11;75554.22;;;-147.06;74.97
54453;BME280;40363;52.270;10.546;2023-08-12T02:07:38;75558.31;;;-147.06;75.30
54453;BME280;40363;52.270;10.546;2023-08-12T02:10:05;75548.03;;;-147.06;75.45
54453;BME280;40363;52.270;10.546;2023-08-12T02:12:32;75556.25;;;-147.06;75.89
54453;BME280;40363;52.270;10.546;2023-08-12T02:14:59;75568.59;;;-147.06;76.39
54453;BME280;40363;52.270;10.546;2023-08-12T02:17:26;75560.38;;;-147.06;76.09
54453;BME280;40363;52.270;10.546;2023-08-12T02:19:52;75568.59;;;-147.06;76.58
54453;BME280;40363;52.270;10.546;2023-08-12T02:22:19;75568.59;;;-147.06;77.35
54453;BME280;40363;52.270;10.546;2023-08-12T02:24:45;75574.75;;;-147.06;77.25
54453;BME280;40363;52.270;10.546;2023-08-12T02:27:12;75585.03;;;-147.06;77.49
54453;BME280;40363;52.270;10.546;2023-08-12T02:29:39;75578.88;;;-147.06;77.41
54453;BME280;40363;52.270;10.546;2023-08-12T02:32:07;75580.91;;;-147.06;77.65
54453;BME280;40363;52.270;10.546;2023-08-12T02:34:33;75585.03;;;-147.06;77.64
54453;BME280;40363;52.270;10.546;2023-08-12T02:37:00;75576.81;;;-147.06;77.68
54453;BME280;40363;52.270;10.546;2023-08-12T02:39:26;75576.81;;;-147.06;77.62
54453;BME280;40363;52.270;10.546;2023-08-12T02:41:53;75576.81;;;-147.06;77.87
54453;BME280;40363;52.270;10.546;2023-08-12T02:44:19;75582.97;;;-147.06;77.94
54453;BME280;40363;52.270;10.546;2023-08-12T02:46:46;75576.81;;;-147.06;77.92
54453;BME280;40363;52.270;10.546;2023-08-12T02:49:14;75572.69;;;-147.06;78.19
54453;BME280;40363;52.270;10.546;2023-08-12T02:51:40;75587.09;;;-147.06;78.98
54453;BME280;40363;52.270;10.546;2023-08-12T02:54:07;75585.03;;;-147.06;79.50
54453;BME280;40363;52.270;10.546;2023-08-12T02:56:34;75593.25;;;-147.06;79.85
54453;BME280;40363;52.270;10.546;2023-08-12T02:59:00;75587.09;;;-147.06;79.10
54453;BME280;40363;52.270;10.546;2023-08-12T03:01:27;75589.13;;;-147.06;79.48
54453;BME280;40363;52.270;10.546;2023-08-12T03:03:54;75585.03;;;-147.06;79.62
54453;BME280;40363;52.270;10.546;2023-08-12T03:06:22;75576.81;;;-147.06;79.35
54453;BME280;40363;52.270;10.546;2023-08-12T03:08:48;75574.75;;;-147.06;79.14
54453;BME280;40363;52.270;10.546;2023-08-12T03:11:15;75587.09;;;-147.06;79.10
54453;BME280;40363;52.270;10.546;2023-08-12T03:13:43;75564.47;;;-147.06;78.82
54453;BME280;40363;52.270;10.546;2023-08-12T03:16:11;75570.66;;;-147.06;79.80
54453;BME280;40363;52.270;10.546;2023-08-12T03:18:39;75560.38;;;-147.06;79.15
54453;BME280;40363;52.270;10.546;2023-08-12T03:21:06;75537.78;;;-147.06;78.82
54453;BME280;40363;52.270;10.546;2023-08-12T03:23:35;75531.59;;;-147.06;77.05
54453;BME280;40363;52.270;10.546;2023-08-12T03:26:02;75525.44;;;-147.06;76.54
54453;BME280;40363;52.270;10.546;2023-08-12T03:28:29;75498.72;;;-147.06;75.24
54453;BME280;40363;52.270;10.546;2023-08-12T03:30:56;75494.63;;;-147.06;75.17
54453;BME280;40363;52.270;10.546;2023-08-12T03:33:22;75482.28;;;-147.06;74.78
54453;BME280;40363;52.270;10.546;2023-08-12T03:35:49;75482.28;;;-147.06;74.55
54453;BME280;40363;52.270;10.546;2023-08-12T03:38:16;75478.19;;;-147.06;74.14
54453;BME280;40363;52.270;10.546;2023-08-12T03:40:44;75478.19;;;-147.06;74.19
54453;BME280;40363;52.270;10.546;2023-08-12T03:43:10;75474.06;;;-147.06;74.37
54453;BME280;40363;52.270;10.546;2023-08-12T03:45:39;75474.06;;;-147.06;75.01
54453;BME280;40363;52.270;10.546;2023-08-12T03:48:06;75472.00;;;-147.06;74.04
54453;BME280;40363;52.270;10.546;2023-08-12T03:50:33;75469.97;;;-147.06;73.40
54453;BME280;40363;52.270;10.546;2023-08-12T03:52:59;75474.06;;;-147.06;73.03
54453;BME280;40363;52.270;10.546;2023-08-12T03:55:26;75463.78;;;-147.06;73.13
54453;BME280;40363;52.270;10.546;2023-08-12T03:57:54;75457.63;;;-147.06;73.40
54453;BME280;40363;52.270;10.546;2023-08-12T04:00:20;75465.84;;;-147.06;74.29
54453;BME280;40363;52.270;10.546;2023-08-12T04:02:47;75469.97;;;-147.06;73.99
54453;BME280;40363;52.270;10.546;2023-08-12T04:05:14;75469.97;;;-147.06;74.13
54453;BME280;40363;52.270;10.546;2023-08-12T04:07:40;75474.06;;;-147.06;74.42
54453;BME280;40363;52.270;10.546;2023-08-12T04:10:07;75474.06;;;-147.06;73.93
54453;BME280;40363;52.270;10.546;2023-08-12T04:12:34;75480.22;;;-147.06;74.00
54453;BME280;40363;52.270;10.546;2023-08-12T04:15:02;75484.34;;;-147.06;73.71
54453;BME280;40363;52.270;10.546;2023-08-12T04:17:31;75517.22;;;-147.06;73.76
54453;BME280;40363;52.270;10.546;2023-08-12T04:19:57;75511.06;;;-147.06;73.99
54453;BME280;40363;52.270;10.546;2023-08-12T04:22:24;75515.16;;;-147.06;74.29
54453;BME280;40363;52.270;10.546;2023-08-12T04:24:51;75539.81;;;-147.06;74.81
54453;BME280;40363;52.270;10.546;2023-08-12T04:27:18;75535.72;;;-147.06;74.92
54453;BME280;40363;52.270;10.546;2023-08-12T04:29:45;75546.00;;;-147.06;75.55
54453;BME280;40363;52.270;10.546;2023-08-12T04:32:13;75552.16;;;-147.06;75.90
54453;BME280;40363;52.270;10.546;2023-08-12T04:34:40;75560.38;;;-147.06;76.62
54453;BME280;40363;52.270;10.546;2023-08-12T04:37:06;75568.59;;;-147.06;77.01
54453;BME280;40363;52.270;10.546;2023-08-12T04:39:33;75562.44;;;-147.06;77.13
54453;BME280;40363;52.270;10.546;2023-08-12T04:41:59;75570.66;;;-147.06;77.50
54453;BME280;40363;52.270;10.546;2023-08-12T04:44:26;75564.47;;;-147.06;77.87
54453;BME280;40363;52.270;10.546;2023-08-12T04:46:52;75562.44;;;-147.06;77.89
54453;BME280;40363;52.270;10.546;2023-08-12T04:49:20;75558.31;;;-147.06;77.95
54453;BME280;40363;52.270;10.546;2023-08-12T04:51:51;75558.31;;;-147.06;77.96
54453;BME280;40363;52.270;10.546;2023-08-12T04:54:17;75550.09;;;-147.06;77.84
54453;BME280;40363;52.270;10.546;2023-08-12T04:56:44;75550.09;;;-147.06;77.78
54453;BME280;40363;52.270;10.546;2023-08-12T04:59:11;75564.47;;;-147.06;77.92
54453;BME280;40363;52.270;10.546;2023-08-12T05:01:37;75552.16;;;-147.06;77.62
54453;BME280;40363;52.270;10.546;2023-08-12T05:04:04;75560.38;;;-147.06;77.75
54453;BME280;40363;52.270;10.546;2023-08-12T05:06:32;75560.38;;;-147.06;77.72
54453;BME280;40363;52.270;10.546;2023-08-12T05:08:59;75564.47;;;-147.06;78.07
54453;BME280;40363;52.270;10.546;2023-08-12T05:11:26;75560.38;;;-147.06;78.16
54453;BME280;40363;52.270;10.546;2023-08-12T05:13:52;75560.38;;;-147.06;78.24
54453;BME280;40363;52.270;10.546;2023-08-12T05:16:19;75566.53;;;-147.06;78.58
54453;BME280;40363;52.270;10.546;2023-08-12T05:18:45;75570.66;;;-147.06;79.82
54453;BME280;40363;52.270;10.546;2023-08-12T05:21:12;75574.75;;;-147.06;81.00
54453;BME280;40363;52.270;10.546;2023-08-12T05:23:40;75580.91;;;-147.06;83.38
54453;BME280;40363;52.270;10.546;2023-08-12T05:26:06;75593.25;;;-147.06;84.43
54453;BME280;40363;52.270;10.546;2023-08-12T05:28:33;75603.53;;;-147.06;86.15
54453;BME280;40363;52.270;10.546;2023-08-12T05:30:59;75611.75;;;-147.06;87.69
54453;BME280;40363;52.270;10.546;2023-08-12T05:33:26;75613.81;;;-147.06;87.21
54453;BME280;40363;52.270;10.546;2023-08-12T05:35:53;75617.91;;;-147.06;89.61
54453;BME280;40363;52.270;10.546;2023-08-12T05:38:19;75617.91;;;-147.06;90.71
54453;BME280;40363;52.270;10.546;2023-08-12T05:40:47;75630.25;;;-147.06;94.04
54453;BME280;40363;52.270;10.546;2023-08-12T05:43:14;75644.63;;;-147.06;95.74
54453;BME280;40363;52.270;10.546;2023-08-12T05:45:40;75659.00;;;-147.06;97.07
54453;BME280;40363;52.270;10.546;2023-08-12T05:48:07;75681.63;;;-147.06;99.67
54453;BME280;40363;52.270;10.546;2023-08-12T05:50:34;75671.34;;;-147.06;100.00
54453;BME280;40363;52.270;10.546;2023-08-12T05:53:00;75671.34;;;-147.06;100.00
54453;BME280;40363;52.270;10.546;2023-08-12T05:55:27;75671.34;;;-147.06;100.00
54453;BME280;40363;52.270;10.546;2023-08-12T05:57:55;75665.16;;;-147.06;100.00
54453;BME280;40363;52.270;10.546;2023-08-12T06:00:21;75663.13;;;-147.06;100.00
54453;BME280;40363;52.270;10.546;2023-08-12T06:02:48;75665.16;;;-147.06;100.00
54453;BME280;40363;52.270;10.546;2023-08-12T06:05:15;75646.69;;;-147.06;100.00
54453;BME280;40363;52.270;10.546;2023-08-12T06:07:41;75634.34;;;-147.06;100.00
54453;BME280;40363;52.270;10.546;2023-08-12T06:10:08;75617.91;;;-147.06;100.00
54453;BME280;40363;52.270;10.546;2023-08-12T06:12:35;75601.47;;;-147.06;100.00
54453;BME280;40363;52.270;10.546;2023-08-12T06:15:04;75576.81;;;-147.06;100.00
54453;BME280;40363;52.270;10.546;2023-08-12T06:17:31;75560.38;;;-147.06;100.00
54453;BME280;40363;52.270;10.546;2023-08-12T06:19:57;75543.94;;;-147.06;100.00
54453;BME280;40363;52.270;10.546;2023-08-12T06:22:24;75572.69;;;-147.06;100.00
54453;BME280;40363;52.270;10.546;2023-08-12T06:24:50;75564.47;;;-147.06;100.00
54453;BME280;40363;52.270;10.546;2023-08-12T06:27:17;75556.25;;;-147.06;100.00
54453;BME280;40363;52.270;10.546;2023-08-12T06:29:45;75539.81;;;-147.06;100.00
54453;BME280;40363;52.270;10.546;2023-08-12T06:32:13;75529.53;;;-147.06;100.00
54453;BME280;40363;52.270;10.546;2023-08-12T06:34:40;75531.59;;;-147.06;100.00
54453;BME280;40363;52.270;10.546;2023-08-12T06:37:07;75523.38;;;-147.06;100.00
54453;BME280;40363;52.270;10.546;2023-08-12T06:39:33;75527.50;;;-147.06;100.00
54453;BME280;40363;52.270;10.546;2023-08-12T06:42:00;75543.94;;;-147.06;100.00
54453;BME280;40363;52.270;10.546;2023-08-12T06:44:26;75541.88;;;-147.06;100.00
54453;BME280;40363;52.270;10.546;2023-08-12T06:46:53;75552.16;;;-147.06;100.00
54453;BME280;40363;52.270;10.546;2023-08-12T06:49:21;75546.00;;;-147.06;100.00
54453;BME280;40363;52.270;10.546;2023-08-12T06:51:47;75543.94;;;-147.06;100.00
54453;BME280;40363;52.270;10.546;2023-08-12T06:54:13;75527.50;;;-147.06;100.00
54453;BME280;40363;52.270;10.546;2023-08-12T06:56:39;75515.16;;;-147.06;100.00
54453;BME280;40363;52.270;10.546;2023-08-12T06:59:06;75504.88;;;-147.06;100.00
54453;BME280;40363;52.270;10.546;2023-08-12T07:01:33;75504.88;;;-147.06;100.00
54453;BME280;40363;52.270;10.546;2023-08-12T07:03:59;75523.38;;;-147.06;100.00
54453;BME280;40363;52.270;10.546;2023-08-12T07:06:27;75531.59;;;-147.06;100.00
54453;BME280;40363;52.270;10.546;2023-08-12T07:08:54;75527.50;;;-147.06;100.00
54453;BME280;40363;52.270;10.546;2023-08-12T07:11:21;75527.50;;;-147.06;100.00
54453;BME280;40363;52.270;10.546;2023-08-12T07:13:47;75511.06;;;-147.06;100.00
54453;BME280;40363;52.270;10.546;2023-08-12T07:16:14;75502.84;;;-147.06;99.26
54453;BME280;40363;52.270;10.546;2023-08-12T07:18:41;75490.50;;;-147.06;98.28
54453;BME280;40363;52.270;10.546;2023-08-12T07:21:07;75478.19;;;-147.06;97.83
54453;BME280;40363;52.270;10.546;2023-08-12T07:23:35;75472.00;;;-147.06;97.80
54453;BME280;40363;52.270;10.546;2023-08-12T07:26:02;75465.84;;;-147.06;97.07
54453;BME280;40363;52.270;10.546;2023-08-12T07:28:28;75455.56;;;-147.06;97.19
54453;BME280;40363;52.270;10.546;2023-08-12T07:30:55;75467.91;;;-147.06;97.25
54453;BME280;40363;52.270;10.546;2023-08-12T07:33:22;75469.97;;;-147.06;97.52
54453;BME280;40363;52.270;10.546;2023-08-12T07:35:49;75461.75;;;-147.06;97.98
54453;BME280;40363;52.270;10.546;2023-08-12T07:38:16;75453.53;;;-147.06;97.90
54453;BME280;40363;52.270;10.546;2023-08-12T07:40:44;75459.69;;;-147.06;97.37
54453;BME280;40363;52.270;10.546;2023-08-12T07:43:10;75467.91;;;-147.06;97.85
54453;BME280;40363;52.270;10.546;2023-08-12T07:45:37;75465.84;;;-147.06;97.77
54453;BME280;40363;52.270;10.546;2023-08-12T07:48:04;75480.22;;;-147.06;97.34
54453;BME280;40363;52.270;10.546;2023-08-12T07:50:31;75482.28;;;-147.06;98.24
54453;BME280;40363;52.270;10.546;2023-08-12T07:52:57;75476.13;;;-147.06;98.30
54453;BME280;40363;52.270;10.546;2023-08-12T07:55:24;75478.19;;;-147.06;97.70
54453;BME280;40363;52.270;10.546;2023-08-12T07:57:52;75469.97;;;-147.06;98.13
54453;BME280;40363;52.270;10.546;2023-08-12T08:00:19;75469.97;;;-147.06;97.83
54453;BME280;40363;52.270;10.546;2023-08-12T08:02:45;75453.53;;;-147.06;97.25
54453;BME280;40363;52.270;10.546;2023-08-12T08:05:12;75445.31;;;-147.06;97.13
54453;BME280;40363;52.270;10.546;2023-08-12T08:07:39;75449.41;;;-147.06;97.00
54453;BME280;40363;52.270;10.546;2023-08-12T08:10:06;75445.31;;;-147.06;97.00
54453;BME280;40363;52.270;10.546;2023-08-12T08:12:33;75447.34;;;-147.06;97.46
54453;BME280;40363;52.270;10.546;2023-08-12T08:15:01;75457.63;;;-147.06;99.00
54453;BME280;40363;52.270;10.546;2023-08-12T08:17:28;75441.19;;;-147.06;99.56
54453;BME280;40363;52.270;10.546;2023-08-12T08:19:55;75445.31;;;-147.06;100.00
54453;BME280;40363;52.270;10.546;2023-08-12T08:22:22;75463.78;;;-147.06;100.00
54453;BME280;40363;52.270;10.546;2023-08-12T08:24:48;75459.69;;;-147.06;100.00
54453;BME280;40363;52.270;10.546;2023-08-12T08:27:15;75463.78;;;-147.06;100.00
54453;BME280;40363;52.270;10.546;2023-08-12T08:29:42;75465.84;;;-147.06;100.00
54453;BME280;40363;52.270;10.546;2023-08-12T08:32:10;75437.06;;;-147.06;100.00
54453;BME280;40363;52.270;10.546;2023-08-12T08:34:36;75418.59;;;-147.06;98.33
54453;BME280;40363;52.270;10.546;2023-08-12T08:37:03;75410.38;;;-147.06;97.61
54453;BME280;40363;52.270;10.546;2023-08-12T08:39:30;75385.72;;;-147.06;96.36
54453;BME280;40363;52.270;10.546;2023-08-12T08:41:58;75365.16;;;-147.06;94.74
54453;BME280;40363;52.270;10.546;2023-08-12T08:44:29;75367.22;;;-147.06;93.32
54453;BME280;40363;52.270;10.546;2023-08-12T08:46:58;75359.00;;;-147.06;92.03
54453;BME280;40363;52.270;10.546;2023-08-12T08:49:28;75363.09;;;-147.06;92.32
54453;BME280;40363;52.270;10.546;2023-08-12T08:51:56;75342.56;;;-147.06;91.26
54453;BME280;40363;52.270;10.546;2023-08-12T08:54:26;75354.88;;;-147.06;91.78
54453;BME280;40363;52.270;10.546;2023-08-12T08:56:53;75346.66;;;-147.06;92.00
54453;BME280;40363;52.270;10.546;2023-08-12T08:59:20;75369.28;;;-147.06;92.56
54453;BME280;40363;52.270;10.546;2023-08-12T09:01:49;75348.72;;;-147.06;91.92
54453;BME280;40363;52.270;10.546;2023-08-12T09:04:18;75369.28;;;-147.06;90.70
54453;BME280;40363;52.270;10.546;2023-08-12T09:06:49;75373.38;;;-147.06;91.42
54453;BME280;40363;52.270;10.546;2023-08-12T09:09:19;75371.31;;;-147.06;92.46
54453;BME280;40363;52.270;10.546;2023-08-12T09:11:47;75383.66;;;-147.06;92.50
54453;BME280;40363;52.270;10.546;2023-08-12T09:14:14;75387.75;;;-147.06;92.07
54453;BME280;40363;52.270;10.546;2023-08-12T09:16:41;75387.75;;;-147.06;91.97
54453;BME280;40363;52.270;10.546;2023-08-12T09:19:08;75385.72;;;-147.06;92.60
54453;BME280;40363;52.270;10.546;2023-08-12T09:21:34;75387.75;;;-147.06;91.98
54453;BME280;40363;52.270;10.546;2023-08-12T09:24:04;75383.66;;;-147.06;93.54
54453;BME280;40363;52.270;10.546;2023-08-12T09:26:31;75373.38;;;-147.06;96.40
54453;BME280;40363;52.270;10.546;2023-08-12T09:28:58;75359.00;;;-147.06;97.23
54453;BME280;40363;52.270;10.546;2023-08-12T09:31:26;75367.22;;;-147.06;97.22
54453;BME280;40363;52.270;10.546;2023-08-12T09:33:53;75381.59;;;-147.06;97.14
54453;BME280;40363;52.270;10.546;2023-08-12T09:36:23;75383.66;;;-147.06;97.02
54453;BME280;40363;52.270;10.546;2023-08-12T09:38:50;75383.66;;;-147.06;97.15
54453;BME280;40363;52.270;10.546;2023-08-12T09:41:19;75365.16;;;-147.06;98.13
54453;BME280;40363;52.270;10.546;2023-08-12T09:43:46;75367.22;;;-147.06;99.37
54453;BME280;40363;52.270;10.546;2023-08-12T09:46:12;75367.22;;;-147.06;99.37
54453;BME280;40363;52.270;10.546;2023-08-12T09:48:40;75359.00;;;-147.06;98.06
54453;BME280;40363;52.270;10.546;2023-08-12T09:51:07;75352.84;;;-147.06;97.90
54453;BME280;40363;52.270;10.546;2023-08-12T09:53:34;75342.56;;;-147.06;98.81
54453;BME280;40363;52.270;10.546;2023-08-12T09:56:06;75361.06;;;-147.06;97.87
54453;BME280;40363;52.270;10.546;2023-08-12T09:58:35;75393.94;;;-147.06;98.86
54453;BME280;40363;52.270;10.546;2023-08-12T10:01:02;75375.44;;;-147.06;98.52
54453;BME280;40363;52.270;10.546;2023-08-12T10:03:29;75363.09;;;-147.06;97.73
54453;BME280;40363;52.270;10.546;2023-08-12T10:05:57;75340.50;;;-147.06;96.10
54453;BME280;40363;52.270;10.546;2023-08-12T10:08:25;75322.00;;;-147.06;94.98
54453;BME280;40363;52.270;10.546;2023-08-12T10:10:52;75293.25;;;-147.06;94.54
54453;BME280;40363;52.270;10.546;2023-08-12T10:13:19;75233.66;;;-147.06;91.58
54453;BME280;40363;52.270;10.546;2023-08-12T10:15:49;75145.31;;;-147.06;91.13
54453;BME280;40363;52.270;10.546;2023-08-12T10:18:18;75227.50;;;-147.06;90.06
54453;BME280;40363;52.270;10.546;2023-08-12T10:20:45;75235.72;;;-147.06;90.09
54453;BME280;40363;52.270;10.546;2023-08-12T10:23:15;75137.09;;;-147.06;88.70
54453;BME280;40363;52.270;10.546;2023-08-12T10:25:43;75079.56;;;-147.06;86.88
54453;BME280;40363;52.270;10.546;2023-08-12T10:28:11;75091.88;;;-147.06;84.83
54453;BME280;40363;52.270;10.546;2023-08-12T10:30:39;74985.03;;;-147.06;82.47
54453;BME280;40363;52.270;10.546;2023-08-12T10:33:08;74878.19;;;-147.06;76.88
54453;BME280;40363;52.270;10.546;2023-08-12T10:35:43;74808.34;;;-147.06;73.17
54453;BME280;40363;52.270;10.546;2023-08-12T10:38:11;74759.03;;;-147.06;68.70
54453;BME280;40363;52.270;10.546;2023-08-12T10:40:39;74757.00;;;-147.06;69.70
54453;BME280;40363;52.270;10.546;2023-08-12T10:43:06;74787.81;;;-147.06;71.24
54453;BME280;40363;52.270;10.546;2023-08-12T10:45:44;74911.06;;;-147.06;73.97
54453;BME280;40363;52.270;10.546;2023-08-12T10:48:18;74833.00;;;-147.06;72.59
54453;BME280;40363;52.270;10.546;2023-08-12T10:50:48;74849.44;;;-147.06;72.25
54453;BME280;40363;52.270;10.546;2023-08-12T10:53:24;74869.97;;;-147.06;72.27
54453;BME280;40363;52.270;10.546;2023-08-12T10:55:55;74983.00;;;-147.06;75.45
54453;BME280;40363;52.270;10.546;2023-08-12T10:58:30;74989.16;;;-147.06;78.11
54453;BME280;40363;52.270;10.546;2023-08-12T11:00:57;74964.50;;;-147.06;77.57
54453;BME280;40363;52.270;10.546;2023-08-12T11:03:25;74943.94;;;-147.06;77.60
54453;BME280;40363;52.270;10.546;2023-08-12T11:05:53;74943.94;;;-147.06;77.30
54453;BME280;40363;52.270;10.546;2023-08-12T11:08:26;74915.19;;;-147.06;75.94
54453;BME280;40363;52.270;10.546;2023-08-12T11:10:54;74921.34;;;-147.06;75.90
54453;BME280;40363;52.270;10.546;2023-08-12T11:13:22;74898.75;;;-147.06;75.47
54453;BME280;40363;52.270;10.546;2023-08-12T11:15:49;74925.47;;;-147.06;74.84
54453;BME280;40363;52.270;10.546;2023-08-12T11:18:17;74898.75;;;-147.06;74.69
54453;BME280;40363;52.270;10.546;2023-08-12T11:20:47;74841.22;;;-147.06;73.07
54453;BME280;40363;52.270;10.546;2023-08-12T11:23:14;74812.47;;;-147.06;71.32
54453;BME280;40363;52.270;10.546;2023-08-12T11:25:42;74765.19;;;-147.06;70.48
54453;BME280;40363;52.270;10.546;2023-08-12T11:28:09;74750.81;;;-147.06;70.01
54453;BME280;40363;52.270;10.546;2023-08-12T11:30:36;74746.72;;;-147.06;69.74
54453;BME280;40363;52.270;10.546;2023-08-12T11:33:03;74839.16;;;-147.06;71.93
54453;BME280;40363;52.270;10.546;2023-08-12T11:35:30;74837.13;;;-147.06;73.27
54453;BME280;40363;52.270;10.546;2023-08-12T11:37:58;74800.13;;;-147.06;72.19
54453;BME280;40363;52.270;10.546;2023-08-12T11:40:26;74787.81;;;-147.06;71.93
54453;BME280;40363;52.270;10.546;2023-08-12T11:42:54;74800.13;;;-147.06;73.12
54453;BME280;40363;52.270;10.546;2023-08-12T11:45:22;74820.69;;;-147.06;73.78
54453;BME280;40363;52.270;10.546;2023-08-12T11:47:49;74841.22;;;-147.06;75.45
54453;BME280;40363;52.270;10.546;2023-08-12T11:50:19;74886.41;;;-147.06;76.75
54453;BME280;40363;52.270;10.546;2023-08-12T11:52:47;74855.59;;;-147.06;76.02
54453;BME280;40363;52.270;10.546;2023-08-12T11:55:16;74820.69;;;-147.06;74.68
54453;BME280;40363;52.270;10.546;2023-08-12T11:57:43;74880.25;;;-147.06;75.87
54453;BME280;40363;52.270;10.546;2023-08-12T12:00:12;74841.22;;;-147.06;76.68
54453;BME280;40363;52.270;10.546;2023-08-12T12:02:45;74804.25;;;-147.06;74.77
54453;BME280;40363;52.270;10.546;2023-08-12T12:05:12;74773.41;;;-147.06;73.01
54453;BME280;40363;52.270;10.546;2023-08-12T12:07:39;74746.72;;;-147.06;72.12
54453;BME280;40363;52.270;10.546;2023-08-12T12:10:06;74742.59;;;-147.06;72.56
54453;BME280;40363;52.270;10.546;2023-08-12T12:12:34;74796.03;;;-147.06;73.39
54453;BME280;40363;52.270;10.546;2023-08-12T12:15:02;74808.34;;;-147.06;74.80
54453;BME280;40363;52.270;10.546;2023-08-12T12:17:29;74763.16;;;-147.06;73.53
54453;BME280;40363;52.270;10.546;2023-08-12T12:19:56;74746.72;;;-147.06;72.34
54453;BME280;40363;52.270;10.546;2023-08-12T12:22:27;74734.38;;;-147.06;72.26
54453;BME280;40363;52.270;10.546;2023-08-12T12:24:57;74742.59;;;-147.06;72.92
54453;BME280;40363;52.270;10.546;2023-08-12T12:27:24;74763.16;;;-147.06;73.27
54453;BME280;40363;52.270;10.546;2023-08-12T12:29:52;74748.78;;;-147.06;71.36